Time;durP1;ratioP1;P1;durP2;ratioP2;P2;SDS_P1;SDS_P2;PMS_P1;PMS_P2;Temp;Humidity;BMP_temperature;BMP_pressure;BME280_temperature;BME280_humidity;BME280_pressure;Samples;Min_cycle;Max_cycle;Signal;HPM_P1;HPM_P2
2023/04/10 00:02:25;;;;;;;2.90;2.07;;;10.40;91.10;;;;;;4988247;28;20281;-65
2023/04/10 00:04:52;;;;;;;1.93;1.80;;;10.40;91.20;;;;;;4988512;28;20243;-65
2023/04/10 00:07:19;;;;;;;1.40;1.30;;;10.30;91.20;;;;;;4992546;28;20691;-64
2023/04/10 00:09:46;;;;;;;1.50;1.40;;;10.30;91.20;;;;;;4989590;28;20243;-63
2023/04/10 00:12:13;;;;;;;3.10;1.27;;;10.30;91.20;;;;;;4991927;28;20281;-65
2023/04/10 00:14:40;;;;;;;4.23;1.73;;;10.30;91.20;;;;;;4992487;28;20206;-65
2023/04/10 00:17:07;;;;;;;1.70;1.43;;;10.30;91.30;;;;;;4988511;28;20227;-64
2023/04/10 00:19:36;;;;;;;2.00;1.67;;;10.20;91.40;;;;;;4992842;28;20198;-64
2023/04/10 00:22:03;;;;;;;2.63;1.50;;;9.70;91.60;;;;;;4990597;28;20206;-65
2023/04/10 00:24:30;;;;;;;3.23;1.60;;;10.30;91.50;;;;;;4989222;28;20207;-65
2023/04/10 00:26:57;;;;;;;3.43;1.97;;;10.30;91.30;;;;;;4991790;28;20216;-65
2023/04/10 00:29:25;;;;;;;1.70;1.47;;;10.30;91.30;;;;;;4990224;28;20261;-64
2023/04/10 00:31:52;;;;;;;1.97;1.60;;;10.30;91.20;;;;;;4990904;28;20192;-65
2023/04/10 00:34:19;;;;;;;1.93;1.63;;;10.30;91.20;;;;;;4992567;28;20217;-65
2023/04/10 00:36:47;;;;;;;3.90;1.97;;;10.30;91.20;;;;;;4989580;28;20259;-64
2023/04/10 00:39:17;;;;;;;1.90;1.80;;;10.30;91.20;;;;;;4989922;28;20623;-65
2023/04/10 00:41:49;;;;;;;2.20;1.90;;;10.30;91.40;;;;;;4989463;28;20233;-64
2023/04/10 00:44:16;;;;;;;1.93;1.73;;;10.30;91.20;;;;;;4989609;28;20199;-64
2023/04/10 00:46:43;;;;;;;2.07;1.73;;;10.30;91.20;;;;;;4991653;28;20200;-65
2023/04/10 00:49:11;;;;;;;2.77;1.70;;;10.20;91.20;;;;;;4992267;28;20547;-66
2023/04/10 00:51:39;;;;;;;2.27;1.83;;;10.20;91.20;;;;;;4988515;28;20682;-64
2023/04/10 00:54:09;;;;;;;2.07;1.70;;;10.20;91.10;;;;;;4992152;28;20603;-65
2023/04/10 00:56:37;;;;;;;1.87;1.63;;;10.20;91.20;;;;;;4990812;28;20604;-66
2023/04/10 00:59:04;;;;;;;2.33;1.60;;;10.10;91.10;;;;;;4989453;28;20194;-64
2023/04/10 01:04:08;;;;;;;4.77;2.30;;;10.20;91.20;;;;;;4994050;28;20572;-69
2023/04/10 01:06:50;;;;;;;2.97;2.40;;;10.20;91.10;;;;;;5002229;28;20199;-69
2023/04/10 01:09:32;;;;;;;3.07;2.17;;;10.10;91.00;;;;;;5001004;28;20212;-69
2023/04/10 01:12:08;;;;;;;2.20;1.70;;;10.10;91.00;;;;;;5007464;28;20672;-69
2023/04/10 01:14:49;;;;;;;3.70;2.03;;;10.10;91.00;;;;;;5008308;28;20612;-70
2023/04/10 01:17:22;;;;;;;2.90;2.17;;;10.00;90.90;;;;;;5003743;28;20676;-69
2023/04/10 01:20:05;;;;;;;1.77;1.67;;;10.00;91.00;;;;;;4999256;28;20627;-69
2023/04/10 01:22:36;;;;;;;3.60;2.27;;;10.00;90.90;;;;;;4998835;28;20202;-70
2023/04/10 01:25:38;;;;;;;4.90;2.50;;;10.00;90.90;;;;;;5002696;28;20195;-69
2023/04/10 01:28:21;;;;;;;2.93;2.07;;;10.00;90.90;;;;;;5002287;28;21098;-70
2023/04/10 01:30:53;;;;;;;4.30;2.40;;;9.90;91.40;;;;;;5002964;28;20224;-70
2023/04/10 01:33:24;;;;;;;2.00;1.87;;;9.90;91.40;;;;;;5006167;28;20578;-70
2023/04/10 01:35:55;;;;;;;3.47;2.37;;;9.90;91.40;;;;;;5000792;28;20229;-70
2023/04/10 01:38:25;;;;;;;3.13;2.20;;;9.90;91.40;;;;;;5002954;28;20208;-70
2023/04/10 01:40:54;;;;;;;4.00;2.70;;;9.90;91.40;;;;;;5011543;28;20283;-70
2023/04/10 01:43:31;;;;;;;4.30;2.40;;;10.00;90.80;;;;;;5002063;28;20198;-69
2023/04/10 01:46:01;;;;;;;3.10;2.00;;;10.00;90.80;;;;;;5000465;28;20242;-70
2023/04/10 01:48:29;;;;;;;3.73;2.63;;;10.00;90.80;;;;;;5000052;28;20361;-70
2023/04/10 01:50:58;;;;;;;4.60;2.27;;;10.00;90.70;;;;;;5006690;28;20218;-70
2023/04/10 01:53:25;;;;;;;5.37;2.60;;;10.00;90.70;;;;;;4997680;28;20202;-69
2023/04/10 01:55:53;;;;;;;2.10;2.00;;;10.00;90.70;;;;;;5001311;28;20214;-69
2023/04/10 01:58:21;;;;;;;2.10;1.90;;;10.00;90.70;;;;;;5014327;28;20747;-69
2023/04/10 02:00:48;;;;;;;3.03;2.40;;;10.00;90.70;;;;;;5005137;28;20206;-69
2023/04/10 02:03:17;;;;;;;2.60;2.00;;;10.00;90.70;;;;;;4996893;28;20327;-69
2023/04/10 02:06:07;;;;;;;2.50;2.30;;;10.00;90.70;;;;;;5006172;28;20187;-69
2023/04/10 02:08:40;;;;;;;2.93;2.20;;;10.00;90.70;;;;;;5004885;28;20234;-68
2023/04/10 02:11:13;;;;;;;3.20;2.50;;;10.00;90.70;;;;;;5006740;28;20222;-69
2023/04/10 02:13:41;;;;;;;2.20;2.00;;;9.90;91.30;;;;;;5000653;28;20202;-69
2023/04/10 02:16:10;;;;;;;3.53;2.40;;;9.90;91.20;;;;;;5002191;28;20236;-70
2023/04/10 02:18:42;;;;;;;3.50;2.20;;;9.80;91.20;;;;;;5005469;28;20214;-70
2023/04/10 02:21:09;;;;;;;2.80;2.57;;;9.80;91.20;;;;;;5016694;28;20194;-70
2023/04/10 02:23:37;;;;;;;3.30;2.40;;;9.90;91.20;;;;;;5000739;28;20211;-70
2023/04/10 02:26:10;;;;;;;3.33;2.33;;;9.90;91.20;;;;;;4995745;28;20334;-70
2023/04/10 02:28:39;;;;;;;8.17;2.83;;;9.90;91.20;;;;;;4997009;28;20195;-70
2023/04/10 02:31:07;;;;;;;3.60;2.20;;;9.90;91.30;;;;;;5000355;28;20226;-70
2023/04/10 02:33:34;;;;;;;3.67;2.17;;;9.80;91.10;;;;;;4989977;28;20616;-70
2023/04/10 02:36:09;;;;;;;3.33;2.40;;;9.80;91.10;;;;;;5005340;28;20214;-71
2023/04/10 02:38:36;;;;;;;4.10;2.80;;;9.80;91.10;;;;;;5000323;28;20223;-70
2023/04/10 02:41:04;;;;;;;3.07;2.63;;;9.80;91.10;;;;;;5004314;28;20584;-70
2023/04/10 02:43:31;;;;;;;5.77;3.53;;;9.80;91.20;;;;;;4991780;28;20201;-70
2023/04/10 02:45:58;;;;;;;4.40;2.33;;;9.70;91.10;;;;;;5005157;28;20606;-70
2023/04/10 02:48:28;;;;;;;4.80;2.70;;;9.70;91.10;;;;;;5006354;28;20686;-70
2023/04/10 02:51:00;;;;;;;2.80;2.20;;;9.70;91.10;;;;;;5003837;28;22370;-68
2023/04/10 02:53:30;;;;;;;2.73;2.10;;;9.70;91.10;;;;;;5004677;28;20203;-69
2023/04/10 02:56:01;;;;;;;3.40;2.40;;;9.70;91.10;;;;;;5000195;28;20211;-70
2023/04/10 02:58:32;;;;;;;2.30;1.90;;;9.60;91.10;;;;;;5004467;28;20693;-69
2023/04/10 03:01:01;;;;;;;3.20;2.30;;;9.60;91.20;;;;;;5003097;28;20217;-69
2023/04/10 03:03:38;;;;;;;2.90;2.40;;;9.60;91.20;;;;;;5001357;28;20234;-70
2023/04/10 03:06:08;;;;;;;2.30;2.07;;;9.60;91.20;;;;;;5017983;28;20215;-70
2023/04/10 03:08:38;;;;;;;2.80;2.23;;;9.60;91.20;;;;;;5002434;28;20712;-70
2023/04/10 03:11:07;;;;;;;2.50;1.93;;;9.60;91.20;;;;;;5005220;28;20245;-69
2023/04/10 03:13:34;;;;;;;2.57;2.00;;;9.60;91.10;;;;;;5004641;28;20214;-68
2023/04/10 03:16:01;;;;;;;2.73;2.00;;;9.60;91.10;;;;;;5009593;28;20278;-70
2023/04/10 03:18:30;;;;;;;3.80;2.40;;;9.60;91.10;;;;;;5007133;28;20205;-70
2023/04/10 03:20:57;;;;;;;3.40;2.30;;;9.60;91.10;;;;;;5019754;28;20586;-69
2023/04/10 03:23:25;;;;;;;2.80;2.10;;;9.60;91.10;;;;;;5002484;28;20199;-70
2023/04/10 03:25:57;;;;;;;4.50;2.07;;;9.60;91.00;;;;;;5007727;28;20210;-70
2023/04/10 03:28:28;;;;;;;2.07;1.87;;;9.60;91.00;;;;;;5006608;28;20213;-70
2023/04/10 03:30:56;;;;;;;2.17;1.80;;;9.50;91.00;;;;;;5010234;28;20215;-69
2023/04/10 03:33:23;;;;;;;4.67;2.17;;;9.50;91.00;;;;;;5007588;28;20593;-69
2023/04/10 03:35:50;;;;;;;3.97;2.43;;;9.40;91.00;;;;;;5007678;28;20205;-70
2023/04/10 03:38:17;;;;;;;3.77;2.50;;;9.40;90.90;;;;;;5021271;28;20253;-70
2023/04/10 03:40:44;;;;;;;2.53;2.33;;;9.50;91.00;;;;;;5008070;28;20302;-70
2023/04/10 03:43:16;;;;;;;5.17;3.03;;;9.50;90.90;;;;;;5007646;28;20224;-69
2023/04/10 03:45:46;;;;;;;5.67;2.87;;;9.50;90.90;;;;;;5008675;28;20521;-69
2023/04/10 03:48:15;;;;;;;3.87;2.37;;;9.50;90.90;;;;;;4999358;28;20581;-70
2023/04/10 03:50:45;;;;;;;6.00;2.80;;;9.60;90.90;;;;;;5016421;28;20222;-69
2023/04/10 03:53:12;;;;;;;5.33;2.80;;;9.50;90.70;;;;;;5006856;28;20241;-69
2023/04/10 03:55:40;;;;;;;3.93;2.70;;;9.50;90.70;;;;;;5003886;28;20233;-70
2023/04/10 03:58:07;;;;;;;3.47;2.50;;;9.50;90.70;;;;;;5006285;28;20207;-69
2023/04/10 04:00:36;;;;;;;2.60;2.30;;;9.50;90.70;;;;;;5006427;28;20560;-70
2023/04/10 04:03:18;;;;;;;4.60;2.50;;;9.40;90.70;;;;;;5006473;28;20320;-70
2023/04/10 04:05:57;;;;;;;2.70;2.30;;;9.40;90.70;;;;;;5006225;28;20220;-69
2023/04/10 04:08:53;;;;;;;2.73;2.47;;;9.40;90.70;;;;;;4954468;28;20576;-69
2023/04/10 04:11:39;;;;;;;2.57;2.37;;;9.30;90.70;;;;;;5010245;28;20673;-70
2023/04/10 04:14:16;;;;;;;2.60;2.37;;;9.30;90.60;;;;;;5007991;28;20191;-70
2023/04/10 04:17:01;;;;;;;2.37;2.10;;;9.20;90.70;;;;;;5007159;28;20288;-69
2023/04/10 04:19:38;;;;;;;2.10;1.90;;;9.20;90.70;;;;;;5008852;28;20214;-70
2023/04/10 04:22:12;;;;;;;4.70;2.37;;;9.20;90.80;;;;;;5021466;28;20211;-69
2023/04/10 04:24:58;;;;;;;3.33;2.43;;;9.20;90.80;;;;;;5001344;28;20293;-70
2023/04/10 04:27:44;;;;;;;5.67;2.47;;;9.20;90.90;;;;;;4997133;28;20562;-69
2023/04/10 04:30:33;;;;;;;2.67;2.30;;;9.30;90.80;;;;;;5007212;28;20301;-69
2023/04/10 04:33:13;;;;;;;3.37;2.40;;;9.20;90.70;;;;;;5010468;28;20241;-69
2023/04/10 04:36:10;;;;;;;3.83;2.73;;;9.20;90.70;;;;;;4995297;28;20206;-70
2023/04/10 04:38:39;;;;;;;3.87;2.40;;;9.20;90.70;;;;;;5009485;28;20209;-69
2023/04/10 04:41:24;;;;;;;4.70;2.27;;;9.10;90.70;;;;;;5006015;28;20321;-69
2023/04/10 04:44:10;;;;;;;2.37;2.00;;;9.20;90.90;;;;;;5007388;28;20229;-70
2023/04/10 04:47:06;;;;;;;2.70;2.10;;;9.10;90.80;;;;;;4994123;28;20225;-69
2023/04/10 04:49:54;;;;;;;2.00;1.70;;;9.10;90.90;;;;;;5001307;28;20201;-70
2023/04/10 04:52:40;;;;;;;3.00;2.30;;;9.10;90.90;;;;;;5005693;28;20284;-70
2023/04/10 04:55:30;;;;;;;2.60;1.93;;;9.00;90.90;;;;;;4992793;28;20210;-70
2023/04/10 04:58:15;;;;;;;3.17;2.37;;;9.10;91.00;;;;;;5002965;28;20222;-69
2023/04/10 05:01:13;;;;;;;3.27;2.20;;;9.10;91.00;;;;;;5008756;28;20238;-69
2023/04/10 05:04:07;;;;;;;3.27;2.20;;;9.10;91.10;;;;;;4976260;28;20241;-69
2023/04/10 05:06:55;;;;;;;2.63;1.90;;;9.10;91.00;;;;;;5005286;28;20582;-70
2023/04/10 05:09:51;;;;;;;3.20;2.23;;;9.20;91.00;;;;;;4990702;28;20237;-70
2023/04/10 05:12:47;;;;;;;2.00;1.70;;;9.30;91.00;;;;;;4969888;28;20739;-68
2023/04/10 05:15:38;;;;;;;1.80;1.70;;;9.30;91.00;;;;;;5001579;28;20210;-70
2023/04/10 05:18:26;;;;;;;3.27;1.83;;;9.40;91.00;;;;;;4985210;28;20665;-69
2023/04/10 05:21:22;;;;;;;2.63;1.90;;;9.40;91.30;;;;;;5001986;28;20610;-70
2023/04/10 05:24:05;;;;;;;2.20;2.00;;;9.40;91.00;;;;;;5004026;28;20202;-70
2023/04/10 05:27:07;;;;;;;2.17;1.87;;;9.50;91.00;;;;;;4985007;28;20221;-70
2023/04/10 05:29:56;;;;;;;4.67;1.90;;;9.50;91.00;;;;;;5001475;28;20242;-69
2023/04/10 05:32:46;;;;;;;1.60;1.50;;;9.60;91.00;;;;;;5003796;28;20677;-70
2023/04/10 05:35:25;;;;;;;1.63;1.53;;;9.60;90.90;;;;;;5009866;28;20218;-70
2023/04/10 05:37:59;;;;;;;2.23;1.80;;;9.60;90.90;;;;;;4999856;28;20210;-70
2023/04/10 05:40:54;;;;;;;2.40;2.20;;;9.70;90.90;;;;;;5001057;28;20215;-70
2023/04/10 05:43:41;;;;;;;2.93;2.03;;;9.70;90.90;;;;;;5008555;28;20198;-68
2023/04/10 05:46:29;;;;;;;2.40;1.90;;;9.70;90.90;;;;;;5002380;28;20276;-69
2023/04/10 05:48:56;;;;;;;1.73;1.63;;;9.80;91.00;;;;;;5007944;28;20199;-70
2023/04/10 05:51:36;;;;;;;2.10;1.50;;;9.80;91.00;;;;;;5001590;28;20217;-70
2023/04/10 05:54:23;;;;;;;2.03;1.50;;;9.90;91.00;;;;;;4998378;28;20297;-70
2023/04/10 05:57:09;;;;;;;1.50;1.40;;;9.90;91.00;;;;;;5002383;28;20205;-70
2023/04/10 06:00:01;;;;;;;2.67;1.70;;;10.00;90.50;;;;;;5002356;28;20211;-70
2023/04/10 06:02:43;;;;;;;2.27;1.73;;;10.00;90.40;;;;;;5008458;28;20259;-70
2023/04/10 06:05:21;;;;;;;2.37;1.40;;;10.10;90.50;;;;;;5019024;28;22449;-69
2023/04/10 06:07:52;;;;;;;1.90;1.57;;;10.10;90.60;;;;;;5004438;28;20656;-69
2023/04/10 06:10:21;;;;;;;1.70;1.40;;;10.10;90.60;;;;;;5024937;28;20230;-69
2023/04/10 06:12:50;;;;;;;1.60;1.50;;;10.20;90.60;;;;;;5003439;28;20206;-71
2023/04/10 06:15:20;;;;;;;1.30;1.20;;;10.30;90.50;;;;;;5016004;28;20349;-70
2023/04/10 06:17:47;;;;;;;2.80;1.63;;;10.00;90.50;;;;;;5007583;28;20506;-69
2023/04/10 06:20:15;;;;;;;1.40;1.30;;;10.40;90.50;;;;;;5004869;28;20301;-69
2023/04/10 06:22:42;;;;;;;2.00;1.53;;;10.50;90.40;;;;;;4999427;28;20226;-69
2023/04/10 06:25:11;;;;;;;1.90;1.43;;;10.50;90.40;;;;;;5007147;28;20223;-69
2023/04/10 06:27:41;;;;;;;2.23;1.80;;;10.60;90.40;;;;;;5004529;28;20731;-69
2023/04/10 06:30:12;;;;;;;1.97;1.67;;;10.60;90.30;;;;;;5007157;28;20266;-69
2023/04/10 06:32:39;;;;;;;2.27;1.80;;;10.80;90.30;;;;;;4999061;28;20218;-69
2023/04/10 06:35:07;;;;;;;2.47;1.90;;;10.80;90.30;;;;;;5004271;28;20205;-69
2023/04/10 06:37:35;;;;;;;3.57;2.77;;;10.90;90.30;;;;;;5007452;28;20237;-68
2023/04/10 06:40:11;;;;;;;3.90;2.63;;;11.00;90.10;;;;;;5004060;28;20203;-69
2023/04/10 06:42:41;;;;;;;3.97;2.80;;;11.20;89.90;;;;;;5004715;28;20534;-69
2023/04/10 06:45:24;;;;;;;3.60;2.20;;;11.30;89.30;;;;;;5009169;28;20546;-68
2023/04/10 06:47:53;;;;;;;2.20;2.00;;;11.30;89.20;;;;;;5006094;28;20245;-70
2023/04/10 06:50:22;;;;;;;2.33;1.67;;;11.30;89.30;;;;;;5007345;28;20341;-69
2023/04/10 06:52:51;;;;;;;1.47;1.37;;;11.40;89.40;;;;;;5003221;28;20225;-69
2023/04/10 06:55:20;;;;;;;2.10;1.77;;;11.50;89.40;;;;;;5005109;28;20196;-69
2023/04/10 06:57:47;;;;;;;1.83;1.27;;;11.50;89.40;;;;;;5006840;28;20263;-69
2023/04/10 07:00:17;;;;;;;1.70;1.60;;;11.60;89.30;;;;;;4999057;28;20723;-69
2023/04/10 07:02:46;;;;;;;1.60;1.50;;;11.70;89.30;;;;;;5006401;28;20239;-70
2023/04/10 07:05:14;;;;;;;1.87;1.77;;;11.80;89.30;;;;;;5028498;28;20206;-70
2023/04/10 07:07:42;;;;;;;2.40;1.60;;;11.90;89.10;;;;;;5012340;28;20206;-70
2023/04/10 07:10:10;;;;;;;1.23;1.13;;;11.90;88.90;;;;;;5038370;28;20221;-70
2023/04/10 07:12:37;;;;;;;1.73;1.20;;;12.00;88.80;;;;;;5014959;28;20294;-70
2023/04/10 07:15:07;;;;;;;1.80;1.63;;;12.10;88.70;;;;;;5027069;28;20207;-70
2023/04/10 07:17:37;;;;;;;1.87;1.37;;;12.10;88.70;;;;;;5030527;28;20235;-69
2023/04/10 07:20:07;;;;;;;1.37;1.27;;;12.20;88.40;;;;;;5031381;28;20241;-70
2023/04/10 07:22:35;;;;;;;1.20;1.10;;;12.30;88.40;;;;;;5011877;28;20297;-69
2023/04/10 07:25:02;;;;;;;2.77;1.33;;;12.60;88.40;;;;;;5030963;28;20213;-70
2023/04/10 07:27:35;;;;;;;1.10;1.10;;;12.50;87.80;;;;;;5008931;28;20200;-69
2023/04/10 07:30:02;;;;;;;1.13;1.00;;;12.60;87.50;;;;;;5013756;28;20202;-69
2023/04/10 07:32:29;;;;;;;1.20;1.10;;;12.70;87.40;;;;;;5030422;28;20550;-69
2023/04/10 07:34:56;;;;;;;2.37;1.23;;;12.80;87.20;;;;;;5011281;28;20751;-69
2023/04/10 07:37:25;;;;;;;1.60;1.50;;;12.80;86.90;;;;;;5014304;28;20195;-70
2023/04/10 07:39:52;;;;;;;1.30;1.10;;;12.90;86.80;;;;;;5031580;28;20293;-69
2023/04/10 07:42:19;;;;;;;1.30;1.20;;;13.00;86.40;;;;;;5030377;28;20681;-70
2023/04/10 07:44:46;;;;;;;2.30;1.33;;;13.00;86.00;;;;;;5041116;28;20611;-70
2023/04/10 07:47:14;;;;;;;1.27;1.17;;;13.10;85.60;;;;;;5032360;28;20197;-70
2023/04/10 07:49:43;;;;;;;1.30;1.20;;;13.20;85.20;;;;;;5031084;28;20234;-69
2023/04/10 07:52:10;;;;;;;1.60;1.27;;;13.20;85.00;;;;;;5023386;28;20716;-69
2023/04/10 07:54:39;;;;;;;1.00;1.00;;;13.20;84.60;;;;;;5022797;28;20258;-70
2023/04/10 07:57:06;;;;;;;1.17;1.17;;;13.30;84.50;;;;;;5029899;28;20199;-70
2023/04/10 07:59:33;;;;;;;2.90;0.90;;;13.40;84.20;;;;;;5013299;28;20272;-69
2023/04/10 08:02:03;;;;;;;1.00;1.00;;;13.50;84.00;;;;;;5010181;28;20200;-68
2023/04/10 08:04:30;;;;;;;1.37;1.20;;;13.60;83.90;;;;;;5010512;28;20203;-70
2023/04/10 08:06:57;;;;;;;1.20;1.10;;;13.70;84.60;;;;;;5034227;28;20554;-69
2023/04/10 08:09:27;;;;;;;1.20;1.10;;;13.70;83.10;;;;;;5031522;28;20544;-70
2023/04/10 08:11:58;;;;;;;1.00;1.00;;;13.80;82.80;;;;;;5028107;28;20355;-68
2023/04/10 08:14:25;;;;;;;1.70;1.57;;;14.00;82.70;;;;;;5025352;28;20261;-69
2023/04/10 08:16:53;;;;;;;2.20;1.47;;;14.00;82.10;;;;;;5026397;28;20189;-69
2023/04/10 08:19:21;;;;;;;1.50;1.07;;;14.20;82.00;;;;;;5032577;28;20203;-69
2023/04/10 08:21:48;;;;;;;1.07;0.90;;;14.10;81.70;;;;;;5032762;28;20199;-69
2023/04/10 08:24:19;;;;;;;1.30;1.17;;;14.20;81.70;;;;;;5025201;28;20236;-69
2023/04/10 08:26:46;;;;;;;2.00;1.60;;;14.40;81.60;;;;;;5019270;28;20215;-69
2023/04/10 08:29:14;;;;;;;1.77;1.40;;;14.50;80.10;;;;;;5026017;28;20288;-70
2023/04/10 08:31:41;;;;;;;1.40;1.30;;;14.60;79.70;;;;;;5036158;28;20244;-70
2023/04/10 08:34:09;;;;;;;1.23;1.13;;;14.70;79.70;;;;;;5010070;28;20253;-70
2023/04/10 08:36:36;;;;;;;2.53;1.30;;;14.80;79.20;;;;;;5031603;28;20197;-69
2023/04/10 08:39:05;;;;;;;3.27;2.00;;;14.90;79.20;;;;;;5030744;28;20209;-70
2023/04/10 08:41:32;;;;;;;1.50;1.40;;;15.00;78.00;;;;;;5018510;28;20232;-70
2023/04/10 08:43:59;;;;;;;2.00;1.23;;;15.10;78.20;;;;;;5030181;28;20935;-71
2023/04/10 08:46:31;;;;;;;1.53;1.37;;;15.20;78.10;;;;;;5034699;28;20236;-69
2023/04/10 08:49:02;;;;;;;1.60;1.20;;;15.20;77.90;;;;;;5021520;28;20199;-69
2023/04/10 08:51:34;;;;;;;1.73;1.10;;;15.30;78.50;;;;;;5013833;28;20214;-69
2023/04/10 08:54:06;;;;;;;1.20;1.10;;;15.50;77.60;;;;;;5027479;28;20288;-69
2023/04/10 08:56:42;;;;;;;0.97;0.97;;;15.60;77.20;;;;;;5032562;28;20543;-69
2023/04/10 08:59:12;;;;;;;1.00;1.00;;;15.70;76.60;;;;;;5035638;28;20321;-69
2023/04/10 09:01:44;;;;;;;1.23;1.03;;;15.70;76.60;;;;;;5023800;28;20217;-69
2023/04/10 09:04:12;;;;;;;1.20;1.20;;;15.80;75.70;;;;;;5023321;28;20202;-69
2023/04/10 09:06:39;;;;;;;3.07;2.00;;;15.90;75.20;;;;;;5032422;28;20202;-69
2023/04/10 09:09:06;;;;;;;1.60;1.50;;;16.00;73.80;;;;;;5029351;28;20238;-70
2023/04/10 09:12:05;;;;;;;1.70;1.57;;;16.10;74.00;;;;;;5024660;28;20242;-70
2023/04/10 09:14:34;;;;;;;1.30;1.20;;;16.10;73.40;;;;;;4931772;29;20219;-70
2023/04/10 09:17:17;;;;;;;3.57;1.43;;;16.20;73.40;;;;;;5005777;28;20215;-69
2023/04/10 09:19:45;;;;;;;2.60;1.67;;;16.30;71.90;;;;;;5006230;28;20206;-69
2023/04/10 09:22:13;;;;;;;4.30;1.70;;;16.30;68.90;;;;;;5008874;28;21521;-70
2023/04/10 09:24:45;;;;;;;1.67;1.57;;;16.30;68.70;;;;;;5008019;28;20210;-70
2023/04/10 09:27:30;;;;;;;1.87;1.53;;;16.30;67.00;;;;;;5011100;28;20214;-69
2023/04/10 09:29:57;;;;;;;1.73;1.63;;;16.40;66.80;;;;;;5013715;28;20295;-70
2023/04/10 09:32:42;;;;;;;2.30;1.53;;;16.50;64.70;;;;;;5035756;28;20209;-69
2023/04/10 09:35:10;;;;;;;2.97;1.90;;;16.60;65.40;;;;;;5024044;28;20213;-70
2023/04/10 09:37:41;;;;;;;4.07;1.83;;;16.70;64.10;;;;;;5032809;28;20219;-70
2023/04/10 09:40:20;;;;;;;1.97;1.77;;;16.70;62.80;;;;;;5031467;28;20206;-69
2023/04/10 09:42:47;;;;;;;2.23;2.00;;;16.80;63.50;;;;;;5029089;28;20225;-69
2023/04/10 09:45:18;;;;;;;2.53;2.33;;;16.80;63.40;;;;;;5029655;28;20195;-70
2023/04/10 09:48:01;;;;;;;3.47;2.90;;;16.90;64.00;;;;;;5025480;28;20245;-69
2023/04/10 09:50:35;;;;;;;6.63;2.83;;;16.60;63.60;;;;;;5030101;28;20199;-70
2023/04/10 09:53:02;;;;;;;3.47;2.33;;;16.80;62.90;;;;;;5007301;28;20654;-70
2023/04/10 09:55:30;;;;;;;3.17;2.20;;;16.90;63.60;;;;;;5027196;28;20209;-70
2023/04/10 09:58:00;;;;;;;2.33;1.90;;;16.80;63.70;;;;;;5028732;28;20208;-70
2023/04/10 10:00:33;;;;;;;3.83;2.07;;;17.00;64.70;;;;;;5023990;28;20236;-70
2023/04/10 10:03:06;;;;;;;2.50;1.70;;;17.00;64.60;;;;;;5033987;28;20689;-70
2023/04/10 10:05:35;;;;;;;1.40;1.30;;;17.10;63.80;;;;;;5036189;28;20186;-70
2023/04/10 10:08:04;;;;;;;1.40;1.30;;;17.20;64.50;;;;;;5034435;28;20205;-70
2023/04/10 10:10:32;;;;;;;1.93;1.83;;;17.30;65.00;;;;;;5024944;28;20622;-70
2023/04/10 10:13:02;;;;;;;1.57;1.47;;;17.40;63.60;;;;;;5006536;28;20215;-70
2023/04/10 10:15:39;;;;;;;1.20;1.10;;;17.50;64.10;;;;;;5022380;28;20581;-69
2023/04/10 10:18:26;;;;;;;1.63;1.17;;;17.60;64.60;;;;;;5028728;28;20207;-69
2023/04/10 10:20:55;;;;;;;1.40;1.30;;;17.70;64.70;;;;;;5027401;28;20198;-70
2023/04/10 10:23:24;;;;;;;1.43;0.90;;;17.90;64.60;;;;;;5026417;28;20202;-70
2023/04/10 10:25:56;;;;;;;1.30;1.20;;;18.00;64.50;;;;;;5022738;28;20627;-70
2023/04/10 10:28:32;;;;;;;1.30;1.20;;;18.10;63.20;;;;;;5033616;28;20197;-69
2023/04/10 10:30:59;;;;;;;1.97;1.33;;;18.10;62.30;;;;;;5034078;28;20247;-70
2023/04/10 10:33:30;;;;;;;1.20;1.10;;;18.20;62.90;;;;;;5030431;28;20304;-70
2023/04/10 10:36:03;;;;;;;1.75;1.02;;;18.30;64.10;;;;;;5021384;28;20577;-69
2023/04/10 10:38:31;;;;;;;1.65;1.52;;;18.30;63.40;;;;;;5030812;28;20205;-69
2023/04/10 10:41:04;;;;;;;1.50;1.40;;;18.30;62.30;;;;;;5032025;28;20684;-70
2023/04/10 10:43:44;;;;;;;1.40;1.30;;;18.30;62.10;;;;;;5028605;28;20194;-70
2023/04/10 10:46:17;;;;;;;1.50;1.37;;;18.40;62.70;;;;;;5018020;28;20205;-70
2023/04/10 10:49:02;;;;;;;1.40;1.30;;;18.40;62.40;;;;;;5025082;28;20203;-70
2023/04/10 10:51:47;;;;;;;2.53;1.25;;;18.50;62.70;;;;;;5013012;28;20227;-70
2023/04/10 10:54:31;;;;;;;1.10;1.10;;;18.60;62.70;;;;;;5023994;28;20397;-70
2023/04/10 10:57:05;;;;;;;1.27;1.17;;;18.80;62.70;;;;;;5041018;28;20197;-70
2023/04/10 10:59:54;;;;;;;3.17;1.40;;;18.90;62.50;;;;;;5027061;28;20209;-70
2023/04/10 11:02:21;;;;;;;1.75;1.35;;;19.00;62.10;;;;;;5031429;28;20230;-70
2023/04/10 11:04:50;;;;;;;4.05;1.40;;;19.00;62.20;;;;;;5033293;28;20433;-70
2023/04/10 11:07:17;;;;;;;1.73;1.20;;;19.00;62.30;;;;;;5007833;28;20211;-71
2023/04/10 11:09:47;;;;;;;1.25;1.15;;;19.10;62.50;;;;;;5035411;28;20193;-70
2023/04/10 11:12:14;;;;;;;1.87;1.20;;;19.10;62.50;;;;;;5019237;28;20313;-70
2023/04/10 11:14:43;;;;;;;4.55;1.48;;;19.10;62.40;;;;;;5004345;28;20256;-70
2023/04/10 11:17:34;;;;;;;2.45;1.58;;;19.20;62.40;;;;;;5028530;28;20199;-69
2023/04/10 11:20:06;;;;;;;1.33;1.23;;;19.20;62.50;;;;;;5027847;28;20280;-70
2023/04/10 11:23:15;;;;;;;2.88;1.60;;;19.30;62.50;;;;;;5029733;28;20183;-69
2023/04/10 11:25:50;;;;;;;2.30;1.67;;;19.30;61.10;;;;;;5020298;28;20205;-68
2023/04/10 11:28:36;;;;;;;2.17;1.52;;;19.20;59.40;;;;;;5030972;28;20197;-70
2023/04/10 11:31:20;;;;;;;1.48;1.38;;;19.10;59.70;;;;;;5025309;28;20197;-69
2023/04/10 11:33:52;;;;;;;1.30;1.20;;;19.10;60.10;;;;;;5009952;28;20510;-70
2023/04/10 11:36:20;;;;;;;2.30;1.80;;;19.30;60.40;;;;;;5025766;28;20649;-70
2023/04/10 11:38:55;;;;;;;1.60;1.50;;;19.30;60.10;;;;;;5039297;28;20198;-69
2023/04/10 11:41:27;;;;;;;2.75;1.58;;;19.30;59.80;;;;;;5017250;28;20218;-70
2023/04/10 11:43:54;;;;;;;1.20;1.10;;;19.40;60.20;;;;;;5009472;28;20190;-70
2023/04/10 11:46:21;;;;;;;1.20;1.10;;;19.30;60.50;;;;;;5017671;28;20206;-69
2023/04/10 11:48:53;;;;;;;1.55;1.45;;;19.40;60.80;;;;;;5030380;28;20202;-69
2023/04/10 11:51:23;;;;;;;1.55;1.45;;;19.50;60.70;;;;;;5034100;28;20190;-69
2023/04/10 11:54:03;;;;;;;1.77;1.33;;;19.40;60.70;;;;;;5034630;28;20642;-69
2023/04/10 11:56:36;;;;;;;1.60;1.50;;;19.50;60.90;;;;;;5012433;28;20732;-69
2023/04/10 11:59:09;;;;;;;2.10;1.48;;;19.50;61.00;;;;;;5030848;28;20199;-69
2023/04/10 12:01:37;;;;;;;2.30;1.55;;;19.50;61.00;;;;;;5031371;28;20645;-69
2023/04/10 12:04:06;;;;;;;4.18;1.67;;;19.60;61.00;;;;;;5005694;28;20237;-69
2023/04/10 12:06:35;;;;;;;1.65;1.38;;;19.60;60.70;;;;;;5027816;28;20191;-69
2023/04/10 12:09:14;;;;;;;2.42;1.20;;;19.60;60.90;;;;;;5032663;28;20302;-69
2023/04/10 12:11:50;;;;;;;3.05;1.85;;;19.70;61.00;;;;;;5029608;28;20210;-69
2023/04/10 12:14:17;;;;;;;1.83;1.42;;;19.60;60.50;;;;;;5019945;28;20720;-70
2023/04/10 12:16:45;;;;;;;1.50;1.40;;;19.60;60.50;;;;;;5031195;28;20281;-70
2023/04/10 12:19:13;;;;;;;1.50;1.40;;;19.60;60.30;;;;;;5028626;28;20320;-71
2023/04/10 12:21:42;;;;;;;1.77;1.67;;;19.70;60.30;;;;;;5024004;28;20554;-70
2023/04/10 12:24:10;;;;;;;3.55;1.38;;;19.70;58.60;;;;;;5019008;28;20569;-69
2023/04/10 12:26:37;;;;;;;3.55;1.92;;;19.60;58.50;;;;;;5026689;28;20501;-69
2023/04/10 12:29:06;;;;;;;2.20;1.45;;;19.60;57.60;;;;;;5022173;28;20288;-70
2023/04/10 12:31:35;;;;;;;1.63;1.38;;;19.60;58.10;;;;;;5026984;28;20348;-69
2023/04/10 12:34:05;;;;;;;2.15;1.50;;;19.60;58.20;;;;;;5027239;28;20226;-70
2023/04/10 12:36:33;;;;;;;3.70;1.50;;;19.80;58.50;;;;;;5016305;28;20608;-69
2023/04/10 12:39:03;;;;;;;1.77;1.67;;;19.60;58.30;;;;;;5030880;28;20257;-70
2023/04/10 12:41:32;;;;;;;3.53;1.52;;;19.70;58.60;;;;;;5027637;28;20194;-69
2023/04/10 12:44:10;;;;;;;3.45;1.60;;;19.60;58.40;;;;;;5020865;28;20191;-69
2023/04/10 12:46:38;;;;;;;2.40;1.33;;;19.50;58.30;;;;;;5028557;28;20206;-69
2023/04/10 12:49:15;;;;;;;1.15;1.15;;;19.60;59.20;;;;;;5026589;28;20558;-70
2023/04/10 12:51:43;;;;;;;1.50;1.40;;;19.50;58.60;;;;;;5027437;28;20277;-70
2023/04/10 12:54:26;;;;;;;1.80;1.70;;;19.50;58.30;;;;;;5025396;28;20301;-69
2023/04/10 12:56:56;;;;;;;3.13;1.45;;;19.40;57.50;;;;;;5026897;28;20220;-70
2023/04/10 12:59:23;;;;;;;1.30;1.20;;;19.50;57.40;;;;;;5025741;28;20579;-70
2023/04/10 13:01:53;;;;;;;1.25;1.10;;;19.40;57.70;;;;;;5025931;28;20271;-69
2023/04/10 13:04:27;;;;;;;1.35;1.25;;;19.50;57.90;;;;;;5029622;28;20186;-70
2023/04/10 13:06:54;;;;;;;2.88;1.30;;;19.60;58.00;;;;;;5019195;28;20301;-70
2023/04/10 13:09:36;;;;;;;1.33;1.23;;;19.60;57.70;;;;;;5033906;28;20195;-70
2023/04/10 13:12:10;;;;;;;1.95;1.60;;;19.70;57.80;;;;;;5008181;28;20230;-70
2023/04/10 13:14:37;;;;;;;1.50;1.40;;;19.70;57.60;;;;;;5003432;28;20222;-70
2023/04/10 13:17:04;;;;;;;1.35;1.23;;;19.70;57.80;;;;;;5024385;28;20683;-70
2023/04/10 13:19:31;;;;;;;2.45;1.50;;;19.70;58.50;;;;;;5022028;28;20666;-70
2023/04/10 13:22:00;;;;;;;1.48;1.30;;;19.70;57.80;;;;;;5027601;28;20233;-70
2023/04/10 13:24:31;;;;;;;1.40;1.30;;;19.60;57.70;;;;;;5013460;28;20257;-71